Time;durP1;ratioP1;P1;durP2;ratioP2;P2;SDS_P1;SDS_P2;PMS_P1;PMS_P2;Temp;Humidity;BMP_temperature;BMP_pressure;BME280_temperature;BME280_humidity;BME280_pressure;Samples;Min_cycle;Max_cycle;Signal;HPM_P1;HPM_P2
2022/08/28 18:11:32;;;;;;;5.85;5.25;;;;;;;22.41;65.48;99033.78;5084058;28;20508;-73
2022/08/28 18:13:59;;;;;;;6.90;5.10;;;;;;;22.46;65.98;99040.53;5082016;28;20068;-74
2022/08/28 18:16:28;;;;;;;7.82;4.97;;;;;;;22.50;66.21;99033.78;5065187;28;20056;-74
2022/08/28 18:18:55;;;;;;;4.22;3.80;;;;;;;22.53;66.44;99038.84;5082445;28;20057;-73
2022/08/28 18:21:23;;;;;;;5.70;4.07;;;;;;;22.61;66.55;99045.13;5082436;28;20064;-73
2022/08/28 18:23:51;;;;;;;4.38;3.45;;;;;;;22.68;66.36;99037.19;5082583;28;20057;-74
2022/08/28 18:26:18;;;;;;;5.45;3.85;;;;;;;22.44;66.44;98997.50;5082424;28;20068;-75
2022/08/28 18:28:47;;;;;;;5.57;4.25;;;;;;;22.82;66.15;99047.31;5082135;28;20057;-74
2022/08/28 18:31:14;;;;;;;5.13;4.10;;;;;;;22.80;65.81;99043.94;5082337;28;20304;-74
2022/08/28 18:33:42;;;;;;;6.22;5.25;;;;;;;22.81;66.13;99058.28;5082180;28;20049;-73
2022/08/28 18:36:12;;;;;;;7.95;5.70;;;;;;;22.86;65.71;99066.72;5082302;28;20056;-76
2022/08/28 18:38:40;;;;;;;5.53;3.78;;;;;;;22.85;65.92;99070.44;5082347;28;20068;-74
2022/08/28 18:41:08;;;;;;;3.70;3.28;;;;;;;22.82;65.60;99078.88;5081838;28;20313;-73
2022/08/28 18:43:36;;;;;;;6.60;3.85;;;;;;;22.82;65.92;99070.78;5081871;28;20052;-73
2022/08/28 18:46:07;;;;;;;4.45;3.58;;;;;;;22.79;65.84;99076.50;5082027;28;20057;-73
2022/08/28 18:48:35;;;;;;;4.63;3.55;;;;;;;22.70;66.23;99076.50;5082257;28;20064;-73
2022/08/28 18:51:05;;;;;;;5.88;3.38;;;;;;;22.75;66.04;99075.16;5081650;28;20056;-74
2022/08/28 18:53:33;;;;;;;3.60;3.03;;;;;;;22.75;66.33;99083.28;5082153;28;20056;-73
2022/08/28 18:56:00;;;;;;;6.03;3.58;;;;;;;22.60;66.46;99054.22;5081538;28;20057;-73
2022/08/28 18:58:28;;;;;;;5.38;4.57;;;;;;;22.74;66.49;99079.72;5082042;28;20053;-73
2022/08/28 19:00:55;;;;;;;6.45;4.22;;;;;;;22.71;66.02;99086.31;5082108;28;20293;-73
2022/08/28 19:03:24;;;;;;;8.25;4.78;;;;;;;22.71;65.90;99091.72;5081646;28;20052;-73
2022/08/28 19:05:53;;;;;;;4.90;3.50;;;;;;;22.71;66.08;99093.56;5081575;28;20056;-73
2022/08/28 19:08:21;;;;;;;4.88;3.45;;;;;;;22.72;66.50;99092.56;5080641;28;20067;-73
2022/08/28 19:10:48;;;;;;;5.45;3.95;;;;;;;20.40;65.91;98704.19;5096267;28;20343;-73
2022/08/28 19:13:16;;;;;;;5.03;4.28;;;;;;;22.31;65.82;99034.91;5100931;28;20055;-73
2022/08/28 19:15:48;;;;;;;3.83;3.15;;;;;;;22.66;65.66;99104.88;5101841;28;20106;-75
2022/08/28 19:18:16;;;;;;;6.35;4.15;;;;;;;22.64;66.28;99103.34;5102094;28;20040;-75
2022/08/28 19:20:47;;;;;;;3.72;3.33;;;;;;;22.64;66.00;99106.91;5100621;28;20056;-75
2022/08/28 19:23:14;;;;;;;4.00;3.47;;;;;;;22.60;66.23;99105.53;5086845;28;20339;-74
2022/08/28 19:25:43;;;;;;;4.25;3.33;;;;;;;22.60;66.06;99104.69;5089651;28;20247;-74
2022/08/28 19:28:10;;;;;;;4.03;3.28;;;;;;;22.57;66.40;99107.75;5087635;28;20083;-74
2022/08/28 19:30:38;;;;;;;5.40;3.83;;;;;;;22.58;66.23;99106.72;5087834;28;20114;-73
2022/08/28 19:33:05;;;;;;;4.43;3.40;;;;;;;22.42;66.02;99084.06;5087676;28;20374;-75
2022/08/28 19:35:33;;;;;;;4.70;3.55;;;;;;;22.55;66.14;99101.66;5087673;28;20366;-73
2022/08/28 19:38:02;;;;;;;4.28;3.20;;;;;;;22.55;65.97;99116.00;5087484;28;20106;-74
2022/08/28 19:40:30;;;;;;;6.53;4.07;;;;;;;22.35;65.67;99085.69;5085782;28;20068;-74
2022/08/28 19:42:58;;;;;;;8.48;6.15;;;;;;;22.50;66.10;99118.31;5087917;28;20056;-72
2022/08/28 19:45:29;;;;;;;7.70;6.18;;;;;;;22.49;65.97;99118.50;5086372;28;20052;-73
2022/08/28 19:47:56;;;;;;;7.88;5.18;;;;;;;22.48;65.66;99116.81;5087345;28;20320;-73
2022/08/28 19:50:23;;;;;;;7.22;5.18;;;;;;;22.46;65.66;99106.16;5087324;28;20052;-73
2022/08/28 19:52:50;;;;;;;6.65;4.40;;;;;;;22.53;65.65;99122.56;5086745;28;20067;-73
2022/08/28 19:55:21;;;;;;;5.28;4.10;;;;;;;22.51;65.23;99125.41;5087534;28;20036;-73
2022/08/28 19:57:49;;;;;;;5.65;3.70;;;;;;;22.45;65.68;99134.19;5087544;28;20052;-73
2022/08/28 20:00:18;;;;;;;6.82;5.22;;;;;;;22.46;65.75;99132.31;5087228;28;20060;-73
2022/08/28 20:02:46;;;;;;;6.18;4.40;;;;;;;22.32;65.98;99128.38;5087221;28;20062;-72
2022/08/28 20:05:15;;;;;;;4.00;3.15;;;;;;;22.32;65.67;99142.72;5087042;28;20056;-73
2022/08/28 20:07:49;;;;;;;4.55;3.65;;;;;;;22.33;65.54;99148.97;5087520;28;20106;-72
2022/08/28 20:10:21;;;;;;;5.10;4.50;;;;;;;22.23;65.77;99132.91;5086869;28;20060;-72
2022/08/28 20:12:49;;;;;;;5.45;4.63;;;;;;;22.34;65.50;99158.75;5087251;28;20044;-72
2022/08/28 20:15:19;;;;;;;6.20;4.80;;;;;;;21.06;65.36;98937.75;5087000;28;20053;-72
2022/08/28 20:17:47;;;;;;;6.18;5.00;;;;;;;22.27;65.46;99136.97;5085488;28;20058;-72
2022/08/28 20:20:14;;;;;;;6.75;6.15;;;;;;;22.32;65.60;99164.31;5086300;28;20052;-72
2022/08/28 20:22:42;;;;;;;6.35;4.82;;;;;;;22.31;65.63;99168.03;5086986;28;20189;-73
2022/08/28 20:25:10;;;;;;;5.90;5.30;;;;;;;22.33;65.25;99170.56;5087530;28;20200;-76
2022/08/28 20:27:39;;;;;;;7.07;5.90;;;;;;;22.33;65.35;99174.13;5087520;28;20128;-73
2022/08/28 20:30:08;;;;;;;7.55;5.72;;;;;;;22.37;65.23;99169.22;5086369;28;20098;-73
2022/08/28 20:32:36;;;;;;;6.30;5.15;;;;;;;22.34;65.10;99174.97;5086317;28;20112;-73
2022/08/28 20:35:06;;;;;;;5.50;4.80;;;;;;;22.32;65.15;99175.13;5086743;28;20052;-73
2022/08/28 20:37:35;;;;;;;5.90;5.28;;;;;;;22.31;65.12;99168.03;5087229;28;20037;-73
2022/08/28 20:40:03;;;;;;;6.20;5.43;;;;;;;22.31;65.12;99172.59;5086973;28;20060;-73
2022/08/28 20:42:31;;;;;;;6.07;5.07;;;;;;;22.28;65.41;99167.50;5086504;28;20053;-73
2022/08/28 20:44:59;;;;;;;6.65;4.80;;;;;;;22.29;64.84;99171.91;5085782;28;20114;-74
2022/08/28 20:47:27;;;;;;;5.63;4.95;;;;;;;22.29;65.33;99169.19;5086391;28;20055;-74
2022/08/28 20:49:57;;;;;;;6.30;5.63;;;;;;;21.91;65.08;99113.91;5086821;28;20060;-75
2022/08/28 20:52:26;;;;;;;7.15;6.40;;;;;;;22.27;64.95;99163.97;5086690;28;20061;-76
2022/08/28 20:54:57;;;;;;;9.50;7.15;;;;;;;22.23;64.86;99165.31;5085570;28;20214;-74
2022/08/28 20:57:25;;;;;;;8.98;7.68;;;;;;;22.27;65.21;99171.22;5086010;28;20052;-74
2022/08/28 20:59:52;;;;;;;6.45;5.85;;;;;;;22.23;65.18;99170.69;5086105;28;20052;-73
2022/08/28 21:02:23;;;;;;;7.38;6.50;;;;;;;21.91;65.01;99127.41;5086560;28;20056;-71
2022/08/28 21:04:51;;;;;;;8.10;7.30;;;;;;;22.24;65.12;99175.09;5086347;28;20110;-71
2022/08/28 21:07:20;;;;;;;5.90;5.20;;;;;;;22.22;65.05;99174.41;5086340;28;20117;-71
2022/08/28 21:09:48;;;;;;;8.10;4.70;;;;;;;21.97;65.24;99151.88;5085853;28;20121;-71
2022/08/28 21:12:15;;;;;;;6.32;5.32;;;;;;;22.23;64.79;99177.97;5085871;28;20052;-71
2022/08/28 21:14:44;;;;;;;5.90;4.95;;;;;;;22.20;65.00;99179.13;5086033;28;20064;-71
2022/08/28 21:17:11;;;;;;;5.80;5.05;;;;;;;22.17;64.74;99168.66;5085968;28;20086;-71
2022/08/28 21:19:40;;;;;;;7.22;5.78;;;;;;;22.24;64.71;99176.94;5085804;28;20056;-70
2022/08/28 21:22:07;;;;;;;7.53;5.85;;;;;;;22.12;64.62;99153.97;5086036;28;20052;-72
2022/08/28 21:24:35;;;;;;;9.65;5.78;;;;;;;22.10;64.89;99151.41;5085106;28;20048;-71
2022/08/28 21:27:03;;;;;;;6.85;4.72;;;;;;;22.20;64.67;99165.63;5085260;28;20086;-72
2022/08/28 21:29:30;;;;;;;6.72;5.35;;;;;;;22.15;64.58;99177.91;5085545;28;20052;-72
2022/08/28 21:31:57;;;;;;;6.43;5.03;;;;;;;22.14;64.66;99170.84;5085623;28;20106;-72
2022/08/28 21:34:26;;;;;;;6.15;5.20;;;;;;;22.13;64.44;99170.00;5085531;28;20056;-72
2022/08/28 21:36:59;;;;;;;7.22;4.90;;;;;;;22.09;64.31;99171.31;5085870;28;20047;-72
2022/08/28 21:39:26;;;;;;;6.93;5.40;;;;;;;22.05;64.35;99180.75;5084952;28;20056;-71
2022/08/28 21:41:54;;;;;;;8.73;6.07;;;;;;;22.01;64.64;99180.22;5085763;28;20060;-72
2022/08/28 21:44:23;;;;;;;8.63;7.18;;;;;;;22.02;64.76;99187.31;5085458;28;20197;-71
2022/08/28 21:46:51;;;;;;;9.15;7.72;;;;;;;21.96;64.57;99187.97;5084592;28;20142;-72
2022/08/28 21:49:18;;;;;;;10.23;8.77;;;;;;;21.61;64.59;99143.06;5085619;28;20232;-72
2022/08/28 21:51:45;;;;;;;12.35;10.85;;;;;;;21.89;64.42;99195.00;5085567;28;20098;-71
2022/08/28 21:54:14;;;;;;;9.02;8.13;;;;;;;21.86;64.41;99194.47;5085263;28;20366;-71
2022/08/28 21:56:42;;;;;;;9.05;6.95;;;;;;;21.79;64.26;99186.16;5085379;28;20052;-70
2022/08/28 21:59:11;;;;;;;17.90;16.10;;;;;;;21.70;64.12;99170.94;5085635;28;20106;-72
2022/08/28 22:01:38;;;;;;;18.40;16.27;;;;;;;21.82;64.29;99190.41;5085063;28;20048;-71
2022/08/28 22:04:07;;;;;;;15.70;12.63;;;;;;;21.82;64.04;99175.06;5085077;28;20266;-72
2022/08/28 22:06:34;;;;;;;9.32;7.50;;;;;;;21.82;64.43;99182.31;5085598;28;20235;-71
2022/08/28 22:09:03;;;;;;;9.25;7.20;;;;;;;21.73;64.26;99184.09;5084079;28;20063;-72
2022/08/28 22:11:32;;;;;;;8.40;6.40;;;;;;;21.36;63.59;99117.81;5084922;28;20048;-71
2022/08/28 22:14:01;;;;;;;7.40;5.25;;;;;;;21.61;63.92;99167.34;5085404;28;20048;-71
2022/08/28 22:16:29;;;;;;;6.93;4.38;;;;;;;21.38;63.88;99128.44;5085323;28;20050;-71
2022/08/28 22:18:56;;;;;;;6.97;4.47;;;;;;;21.80;63.62;99182.47;5085148;28;20053;-71
2022/08/28 22:24:12;;;;;;;6.07;4.32;;;;;;;21.71;63.49;99186.09;5085113;28;20094;-71
2022/08/28 22:26:42;;;;;;;6.70;4.40;;;;;;;21.73;63.04;99187.63;5085103;28;20060;-71
2022/08/28 22:29:10;;;;;;;10.15;7.25;;;;;;;21.74;63.18;99193.88;5085163;28;20114;-70
2022/08/28 22:31:37;;;;;;;9.32;7.88;;;;;;;21.61;63.65;99169.19;5085255;28;20370;-71
2022/08/28 22:34:05;;;;;;;8.95;7.45;;;;;;;21.68;63.52;99189.13;5085271;28;20056;-70
2022/08/28 22:36:32;;;;;;;7.82;5.85;;;;;;;21.54;63.74;99176.22;5085270;28;20316;-71
2022/08/28 22:39:00;;;;;;;8.05;5.30;;;;;;;21.60;63.79;99191.75;5084315;28;20057;-71
2022/08/28 22:41:27;;;;;;;5.93;5.18;;;;;;;21.55;63.97;99194.09;5085281;28;20239;-70
2022/08/28 22:43:56;;;;;;;6.55;5.60;;;;;;;21.59;63.47;99190.06;5085307;28;20193;-71
2022/08/28 22:46:23;;;;;;;6.28;5.10;;;;;;;21.33;63.88;99152.31;5085324;28;20082;-71
2022/08/28 22:48:51;;;;;;;9.93;8.10;;;;;;;21.25;63.73;99150.41;5084230;28;20041;-71
2022/08/28 22:51:19;;;;;;;7.22;5.85;;;;;;;21.15;64.07;99128.09;5083946;28;20048;-71
2022/08/28 22:53:46;;;;;;;8.30;6.88;;;;;;;21.41;64.14;99182.03;5085077;28;20036;-71
2022/08/28 22:56:15;;;;;;;11.25;8.02;;;;;;;21.55;64.14;99192.25;5085476;28;20313;-71
2022/08/28 22:58:43;;;;;;;7.43;5.95;;;;;;;21.44;64.01;99163.69;5088602;28;20052;-71
2022/08/28 23:01:16;;;;;;;10.15;9.13;;;;;;;21.39;64.09;99147.16;5088861;28;20048;-71
2022/08/28 23:03:44;;;;;;;9.82;8.73;;;;;;;21.53;64.06;99190.72;5088777;28;20056;-71
2022/08/28 23:06:11;;;;;;;8.65;7.15;;;;;;;21.51;64.48;99188.16;5088620;28;20105;-71
2022/08/28 23:08:39;;;;;;;6.80;6.07;;;;;;;21.51;64.04;99185.47;5088676;28;20040;-71
2022/08/28 23:11:07;;;;;;;6.47;5.85;;;;;;;21.50;64.25;99180.25;5088157;28;20102;-71
2022/08/28 23:13:34;;;;;;;7.18;5.97;;;;;;;21.47;64.19;99181.41;5088504;28;20089;-71
2022/08/28 23:16:03;;;;;;;6.07;5.47;;;;;;;20.99;64.16;99098.31;5088468;28;20057;-71
2022/08/28 23:18:33;;;;;;;7.43;4.82;;;;;;;21.48;64.19;99179.56;5088625;28;20041;-71
2022/08/28 23:21:01;;;;;;;9.13;5.32;;;;;;;21.50;64.28;99183.78;5088642;28;20128;-71
2022/08/28 23:23:28;;;;;;;7.03;5.05;;;;;;;21.52;63.92;99183.63;5088378;28;20255;-70
2022/08/28 23:25:56;;;;;;;6.38;5.68;;;;;;;21.51;64.06;99179.22;5088256;28;20056;-70
2022/08/28 23:28:26;;;;;;;6.03;5.30;;;;;;;21.48;64.08;99182.25;5087875;28;20106;-71
2022/08/28 23:30:54;;;;;;;6.18;5.57;;;;;;;21.30;64.15;99172.34;5088321;28;20166;-70
2022/08/28 23:33:21;;;;;;;7.15;5.68;;;;;;;21.39;63.89;99184.88;5088274;28;20190;-70
2022/08/28 23:35:49;;;;;;;5.55;4.85;;;;;;;21.41;63.89;99182.88;5088282;28;20082;-71
2022/08/28 23:38:17;;;;;;;6.78;4.85;;;;;;;21.38;64.06;99175.09;5088107;28;20056;-70
2022/08/28 23:40:44;;;;;;;7.07;5.47;;;;;;;21.37;64.09;99186.91;5088421;28;20098;-70
2022/08/28 23:43:12;;;;;;;6.75;5.38;;;;;;;20.97;63.82;99122.72;5088644;28;20118;-70
2022/08/28 23:45:40;;;;;;;5.20;4.22;;;;;;;21.43;63.67;99190.81;5088597;28;20060;-70
2022/08/28 23:48:08;;;;;;;5.80;5.18;;;;;;;21.40;63.08;99191.13;5089007;28;20114;-70
2022/08/28 23:50:35;;;;;;;9.48;6.18;;;;;;;21.31;63.67;99192.91;5088665;28;20057;-70
2022/08/28 23:53:04;;;;;;;9.93;5.15;;;;;;;21.38;63.35;99183.19;5087924;28;20048;-70
2022/08/28 23:55:32;;;;;;;8.50;5.25;;;;;;;21.23;63.54;99165.91;5087965;28;20362;-71
2022/08/28 23:57:59;;;;;;;17.45;6.40;;;;;;;21.36;63.34;99189.75;5087825;28;20121;-71
